Time;durP1;ratioP1;P1;durP2;ratioP2;P2;SDS_P1;SDS_P2;PMS_P1;PMS_P2;Temp;Humidity;BMP_temperature;BMP_pressure;BME280_temperature;BME280_humidity;BME280_pressure;Samples;Min_cycle;Max_cycle;Signal;HPM_P1;HPM_P2
2022/08/27 00:01:30;;;;;;;;;;;;;;;21.93;81.65;99525.69;12224136;19;19930;-81
2022/08/27 00:05:39;;;;;;;;;;;;;;;21.90;82.06;99531.97;12223770;19;19922;-82
2022/08/27 00:09:41;;;;;;;;;;;;;;;21.93;82.52;99525.69;12223210;19;19914;-81
2022/08/27 00:13:45;;;;;;;;;;;;;;;21.94;82.01;99533.75;12190411;19;19939;-81
2022/08/27 00:17:52;;;;;;;;;;;;;;;21.99;81.75;99529.97;12224480;19;19915;-81
2022/08/27 00:21:54;;;;;;;;;;;;;;;21.99;81.89;99527.16;12223052;19;20386;-82
2022/08/27 00:25:56;;;;;;;;;;;;;;;22.01;81.62;99533.25;12201823;19;19918;-81
2022/08/27 00:29:58;;;;;;;;;;;;;;;21.98;81.40;99523.53;12224930;19;19925;-81
2022/08/27 00:34:00;;;;;;;;;;;;;;;21.97;81.51;99532.28;12225332;19;20241;-81
2022/08/27 00:38:02;;;;;;;;;;;;;;;21.99;81.11;99525.19;12207480;19;20272;-81
2022/08/27 00:42:04;;;;;;;;;;;;;;;21.99;81.12;99525.19;12228426;19;20395;-81
2022/08/27 00:46:09;;;;;;;;;;;;;;;21.98;81.36;99534.78;12227972;19;19922;-81
2022/08/27 00:50:16;;;;;;;;;;;;;;;21.95;80.93;99527.03;12205459;19;19911;-82
2022/08/27 00:54:18;;;;;;;;;;;;;;;21.98;80.81;99533.91;12254254;19;19907;-80
2022/08/27 00:58:24;;;;;;;;;;;;;;;21.98;81.14;99528.31;12275059;19;19939;-80
2022/08/27 01:02:29;;;;;;;;;;;;;;;21.99;81.43;99527.16;12231314;19;19910;-82
2022/08/27 01:06:32;;;;;;;;;;;;;;;21.98;81.06;99523.53;12241409;19;20003;-81
2022/08/27 01:10:35;;;;;;;;;;;;;;;22.00;81.24;99526.00;12240202;19;19915;-82
2022/08/27 01:14:38;;;;;;;;;;;;;;;22.00;81.07;99526.81;12216242;19;19915;-82
2022/08/27 01:18:39;;;;;;;;;;;;;;;21.97;81.82;99524.69;12240839;19;19906;-81
2022/08/27 01:22:47;;;;;;;;;;;;;;;21.97;81.13;99526.66;12215697;19;19914;-83
2022/08/27 01:26:49;;;;;;;;;;;;;;;21.98;81.22;99523.53;12237825;19;19931;-82
2022/08/27 01:30:50;;;;;;;;;;;;;;;21.97;81.36;99515.44;12238830;19;19935;-82
2022/08/27 01:34:53;;;;;;;;;;;;;;;21.93;81.92;99520.91;12213890;19;19917;-82
2022/08/27 01:38:55;;;;;;;;;;;;;;;21.89;82.62;99524.69;12237936;19;19948;-82
2022/08/27 01:42:58;;;;;;;;;;;;;;;21.87;82.54;99527.03;12235088;19;19910;-82
2022/08/27 01:46:59;;;;;;;;;;;;;;;21.83;82.38;99518.44;12212900;19;21013;-82
2022/08/27 01:51:01;;;;;;;;;;;;;;;21.87;82.15;99529.84;12232886;19;19918;-81
2022/08/27 01:55:03;;;;;;;;;;;;;;;21.80;82.05;99524.72;12232763;19;19950;-81
2022/08/27 01:59:05;;;;;;;;;;;;;;;21.75;82.33;99522.09;12209999;19;19914;-82
2022/08/27 02:03:07;;;;;;;;;;;;;;;21.68;82.48;99518.94;12231815;19;19919;-83
2022/08/27 02:07:09;;;;;;;;;;;;;;;21.61;82.55;99517.47;12242921;19;20099;-83
2022/08/27 02:11:16;;;;;;;;;;;;;;;21.53;83.13;99512.69;12222808;19;19907;-82
2022/08/27 02:15:18;;;;;;;;;;;;;;;21.47;83.53;99507.56;12243438;19;19910;-82
2022/08/27 02:19:20;;;;;;;;;;;;;;;21.42;83.68;99510.53;12239844;19;19915;-81
2022/08/27 02:23:22;;;;;;;;;;;;;;;21.35;83.44;99506.22;12219990;19;19920;-81
2022/08/27 02:27:25;;;;;;;;;;;;;;;21.27;84.84;99507.06;12240155;19;20347;-82
2022/08/27 02:31:28;;;;;;;;;;;;;;;21.23;85.41;99505.22;12240546;19;20298;-81
2022/08/27 02:35:31;;;;;;;;;;;;;;;21.20;85.39;99509.50;12219311;19;19911;-81
2022/08/27 02:39:34;;;;;;;;;;;;;;;21.19;85.53;99513.47;12240621;19;20383;-82
2022/08/27 02:43:38;;;;;;;;;;;;;;;21.14;85.88;99514.44;12234156;19;20366;-81
2022/08/27 02:47:40;;;;;;;;;;;;;;;21.19;86.15;99507.06;12230102;19;19915;-81
2022/08/27 02:51:41;;;;;;;;;;;;;;;21.22;86.00;99507.22;12237880;19;19911;-82
2022/08/27 02:55:44;;;;;;;;;;;;;;;21.26;85.83;99508.19;12227184;19;19914;-82
2022/08/27 02:59:47;;;;;;;;;;;;;;;21.29;85.32;99506.72;12244793;19;19907;-82
2022/08/27 03:03:48;;;;;;;;;;;;;;;21.33;84.83;99502.13;12243578;19;19918;-82
2022/08/27 03:07:50;;;;;;;;;;;;;;;21.34;85.71;99503.75;12220878;19;19919;-82
2022/08/27 03:11:52;;;;;;;;;;;;;;;21.38;85.09;99494.38;12239767;19;19918;-82
2022/08/27 03:15:54;;;;;;;;;;;;;;;21.36;85.90;99501.50;12236875;19;19931;-82
2022/08/27 03:19:55;;;;;;;;;;;;;;;21.38;85.19;99499.97;12212083;19;19918;-82
2022/08/27 03:23:59;;;;;;;;;;;;;;;21.39;85.14;99495.22;12234447;19;19981;-82
2022/08/27 03:28:14;;;;;;;;;;;;;;;21.40;85.71;99496.88;12236442;19;19918;-82
2022/08/27 03:32:24;;;;;;;;;;;;;;;21.41;86.42;99489.28;12209982;19;19915;-81
2022/08/27 03:36:26;;;;;;;;;;;;;;;21.39;86.00;99500.84;12233118;19;19920;-82
2022/08/27 03:40:28;;;;;;;;;;;;;;;21.44;85.20;99500.66;12231804;19;19922;-82
2022/08/27 03:44:30;;;;;;;;;;;;;;;21.39;85.55;99506.44;12209517;19;19930;-82
2022/08/27 03:48:32;;;;;;;;;;;;;;;21.37;85.49;99503.13;12231746;19;19926;-82
2022/08/27 03:52:35;;;;;;;;;;;;;;;21.35;85.63;99503.41;12232072;19;19907;-81
2022/08/27 03:56:38;;;;;;;;;;;;;;;21.35;85.48;99509.03;12212101;19;19918;-81
2022/08/27 04:00:41;;;;;;;;;;;;;;;21.34;85.14;99513.00;12231469;19;19915;-81
2022/08/27 04:04:42;;;;;;;;;;;;;;;21.33;85.21;99514.16;12208762;19;19916;-82
2022/08/27 04:08:44;;;;;;;;;;;;;;;21.27;85.66;99504.25;12233891;19;20328;-81
2022/08/27 04:12:46;;;;;;;;;;;;;;;21.28;85.29;99513.50;12229167;19;20332;-81
2022/08/27 04:16:47;;;;;;;;;;;;;;;21.26;85.65;99513.81;12208365;19;19915;-82
2022/08/27 04:20:52;;;;;;;;;;;;;;;21.29;85.23;99512.31;12229642;19;20426;-81
2022/08/27 04:24:54;;;;;;;;;;;;;;;21.27;85.68;99515.47;12227754;19;19921;-81
2022/08/27 04:28:56;;;;;;;;;;;;;;;21.26;85.51;99518.59;12203362;19;19915;-81
2022/08/27 04:32:58;;;;;;;;;;;;;;;21.24;85.68;99518.06;12228497;19;19911;-82
2022/08/27 04:37:00;;;;;;;;;;;;;;;21.25;85.82;99523.38;12228148;19;19922;-81
2022/08/27 04:41:18;;;;;;;;;;;;;;;21.27;85.55;99521.06;12206309;19;19918;-82
2022/08/27 04:45:23;;;;;;;;;;;;;;;21.24;85.85;99529.28;12226004;19;19914;-81
2022/08/27 04:49:26;;;;;;;;;;;;;;;21.26;85.98;99532.59;12227153;19;19907;-82
2022/08/27 04:53:28;;;;;;;;;;;;;;;21.29;85.75;99538.38;12202540;19;19915;-81
2022/08/27 04:57:29;;;;;;;;;;;;;;;21.32;85.88;99534.91;12227218;19;19914;-81
2022/08/27 05:01:31;;;;;;;;;;;;;;;21.34;85.58;99532.59;12227482;19;19907;-81
2022/08/27 05:05:33;;;;;;;;;;;;;;;21.33;86.16;99528.16;12205665;19;19915;-81
2022/08/27 05:09:43;;;;;;;;;;;;;;;21.35;85.65;99539.03;12226559;19;19915;-81
2022/08/27 05:13:51;;;;;;;;;;;;;;;21.29;85.58;99543.16;12203045;19;19918;-82
2022/08/27 05:17:53;;;;;;;;;;;;;;;21.22;86.47;99540.84;12230537;19;19910;-81
2022/08/27 05:21:57;;;;;;;;;;;;;;;21.30;85.74;99542.84;12224917;19;20552;-81
2022/08/27 05:26:01;;;;;;;;;;;;;;;21.35;85.61;99545.47;12202570;19;19935;-82
2022/08/27 05:30:14;;;;;;;;;;;;;;;21.40;85.10;99536.09;12224826;19;19915;-81
2022/08/27 05:34:21;;;;;;;;;;;;;;;21.36;85.42;99535.94;12223556;19;19911;-81
2022/08/27 05:38:29;;;;;;;;;;;;;;;21.39;85.61;99545.69;12239069;19;19922;-81
2022/08/27 05:42:31;;;;;;;;;;;;;;;21.46;85.48;99536.78;12284479;19;19907;-80
2022/08/27 05:46:33;;;;;;;;;;;;;;;21.54;84.48;99553.59;12286418;19;19915;-80
2022/08/27 05:50:35;;;;;;;;;;;;;;;21.53;85.06;99546.31;12261121;19;19915;-80
2022/08/27 05:54:37;;;;;;;;;;;;;;;21.58;85.15;99554.56;12251799;19;19911;-81
2022/08/27 06:02:59;;;;;;;;;;;;;;;21.67;84.42;99540.56;12250382;19;19925;-81
2022/08/27 06:07:02;;;;;;;;;;;;;;;21.69;84.24;99538.25;12248275;19;19914;-82
2022/08/27 06:11:04;;;;;;;;;;;;;;;21.75;84.24;99538.91;12224118;19;19915;-82
2022/08/27 06:15:06;;;;;;;;;;;;;;;21.78;84.37;99539.06;12248959;19;19915;-82
2022/08/27 06:19:10;;;;;;;;;;;;;;;21.81;84.22;99549.63;12247834;19;19913;-82
2022/08/27 06:23:16;;;;;;;;;;;;;;;21.89;84.13;99549.94;12222891;19;19910;-82
2022/08/27 06:27:28;;;;;;;;;;;;;;;21.90;83.66;99544.00;12246745;19;19903;-82
2022/08/27 06:31:30;;;;;;;;;;;;;;;21.90;83.49;99558.03;12230349;19;19918;-84
2022/08/27 06:35:34;;;;;;;;;;;;;;;21.85;83.43;99552.59;12207447;19;19918;-84
2022/08/27 06:39:38;;;;;;;;;;;;;;;21.92;83.21;99552.94;12228387;19;19936;-84
2022/08/27 06:43:41;;;;;;;;;;;;;;;21.95;82.84;99557.03;12210839;19;19922;-83
2022/08/27 06:47:42;;;;;;;;;;;;;;;21.98;82.76;99559.16;12229602;19;20343;-84
2022/08/27 06:51:45;;;;;;;;;;;;;;;21.97;82.51;99563.13;12224552;19;19910;-82
2022/08/27 06:55:48;;;;;;;;;;;;;;;22.07;81.88;99563.63;12208558;19;19911;-83
2022/08/27 06:59:50;;;;;;;;;;;;;;;21.99;82.57;99569.25;12227066;19;19907;-84
2022/08/27 07:03:53;;;;;;;;;;;;;;;21.97;82.43;99568.75;12231907;19;19931;-84
2022/08/27 07:07:55;;;;;;;;;;;;;;;21.95;82.34;99576.66;12206427;19;19971;-83
2022/08/27 07:11:57;;;;;;;;;;;;;;;22.03;82.33;99581.44;12226958;19;19915;-83
2022/08/27 07:16:02;;;;;;;;;;;;;;;22.02;83.38;99579.81;12229760;19;20406;-83
2022/08/27 07:20:04;;;;;;;;;;;;;;;22.06;83.49;99580.78;12205660;19;19978;-84
2022/08/27 07:24:07;;;;;;;;;;;;;;;22.04;83.10;99578.31;12241474;19;19915;-84
2022/08/27 07:28:09;;;;;;;;;;;;;;;22.04;82.73;99578.31;12248468;19;19919;-84
2022/08/27 07:32:11;;;;;;;;;;;;;;;21.98;82.29;99585.25;12232844;19;19910;-83
2022/08/27 07:36:12;;;;;;;;;;;;;;;21.96;82.74;99592.34;12254944;19;20359;-83
2022/08/27 07:40:14;;;;;;;;;;;;;;;21.93;83.11;99595.81;12239764;19;20304;-83
2022/08/27 07:44:26;;;;;;;;;;;;;;;21.94;82.99;99591.84;12206565;19;20565;-85
2022/08/27 07:48:34;;;;;;;;;;;;;;;22.05;82.13;99602.41;12224724;19;19964;-84
2022/08/27 07:52:38;;;;;;;;;;;;;;;22.16;81.75;99604.88;12224711;19;19906;-83
2022/08/27 07:56:39;;;;;;;;;;;;;;;22.27;81.05;99604.22;12218750;19;19915;-83
2022/08/27 08:00:42;;;;;;;;;;;;;;;22.69;79.45;99592.38;12226264;19;19919;-85
2022/08/27 08:04:44;;;;;;;;;;;;;;;23.21;76.94;99594.97;12202185;19;19910;-84
2022/08/27 08:08:46;;;;;;;;;;;;;;;23.48;75.15;99593.66;12224020;19;20416;-85
2022/08/27 08:12:48;;;;;;;;;;;;;;;23.82;73.27;99591.75;12224704;19;19907;-83
2022/08/27 08:16:50;;;;;;;;;;;;;;;24.03;72.64;99594.53;12202460;19;19974;-84
2022/08/27 08:20:52;;;;;;;;;;;;;;;24.44;71.38;99610.56;12224930;19;19914;-84
2022/08/27 08:24:59;;;;;;;;;;;;;;;24.85;68.83;99611.59;12225880;19;19921;-83
2022/08/27 08:29:03;;;;;;;;;;;;;;;25.01;68.11;99606.91;12200660;19;20010;-85
2022/08/27 08:33:05;;;;;;;;;;;;;;;25.04;66.72;99610.19;12223834;19;19914;-83
2022/08/27 08:37:06;;;;;;;;;;;;;;;24.90;67.56;99604.91;12224790;19;19999;-85
2022/08/27 08:41:26;;;;;;;;;;;;;;;24.72;67.05;99610.75;12199816;19;19918;-84
2022/08/27 08:45:33;;;;;;;;;;;;;;;25.17;67.31;99604.25;12228580;19;19950;-85
2022/08/27 08:49:35;;;;;;;;;;;;;;;25.33;64.70;99601.53;12222385;19;19970;-82
2022/08/27 08:53:55;;;;;;;;;;;;;;;25.43;64.53;99611.50;12199253;19;20264;-85
2022/08/27 08:57:59;;;;;;;;;;;;;;;25.58;62.74;99612.75;12223689;19;19910;-83
2022/08/27 09:02:01;;;;;;;;;;;;;;;25.45;63.73;99612.78;12201255;19;19938;-83
2022/08/27 09:06:06;;;;;;;;;;;;;;;25.60;63.56;99616.06;12221945;19;19927;-83
2022/08/27 09:10:13;;;;;;;;;;;;;;;25.85;62.65;99616.88;12218290;19;19915;-83
2022/08/27 09:14:23;;;;;;;;;;;;;;;26.03;61.46;99617.41;12202694;19;19927;-83
2022/08/27 09:18:25;;;;;;;;;;;;;;;25.96;61.17;99608.72;12232683;19;19910;-84
2022/08/27 09:22:41;;;;;;;;;;;;;;;26.01;60.60;99612.09;12234137;19;20248;-83
2022/08/27 09:26:43;;;;;;;;;;;;;;;26.12;60.95;99615.25;12212110;19;20336;-83
2022/08/27 09:30:44;;;;;;;;;;;;;;;26.13;60.29;99617.69;12232196;19;19914;-83
2022/08/27 09:34:46;;;;;;;;;;;;;;;26.10;59.41;99614.78;12210509;19;19926;-83
2022/08/27 09:38:56;;;;;;;;;;;;;;;26.24;60.32;99618.03;12232054;19;19911;-83
2022/08/27 09:43:06;;;;;;;;;;;;;;;26.32;58.28;99621.84;12236052;19;19999;-83
2022/08/27 09:47:11;;;;;;;;;;;;;;;26.32;58.72;99617.00;12209861;19;19978;-84
2022/08/27 09:51:16;;;;;;;;;;;;;;;26.29;59.02;99625.41;12228135;19;19928;-82
2022/08/27 09:55:33;;;;;;;;;;;;;;;26.19;58.32;99623.91;12230620;19;19999;-83
2022/08/27 09:59:38;;;;;;;;;;;;;;;26.19;58.72;99615.44;12211768;19;20356;-83
2022/08/27 10:03:41;;;;;;;;;;;;;;;26.19;59.21;99614.63;12230877;19;19929;-82
2022/08/27 10:07:51;;;;;;;;;;;;;;;26.35;58.71;99613.50;12209647;19;20355;-82
2022/08/27 10:12:18;;;;;;;;;;;;;;;26.53;57.73;99610.34;12228424;19;19918;-83
2022/08/27 10:16:29;;;;;;;;;;;;;;;26.66;56.85;99603.47;12231016;19;19923;-83
2022/08/27 10:20:51;;;;;;;;;;;;;;;26.72;56.72;99610.47;12210801;19;19917;-83
2022/08/27 10:25:06;;;;;;;;;;;;;;;26.68;55.93;99605.91;12229478;19;19910;-83
2022/08/27 10:29:26;;;;;;;;;;;;;;;26.76;55.90;99610.56;12208427;19;20427;-82
2022/08/27 10:33:27;;;;;;;;;;;;;;;26.97;54.52;99596.16;12230900;19;20452;-83
2022/08/27 10:37:44;;;;;;;;;;;;;;;26.95;55.08;99601.34;12230963;19;19906;-83
2022/08/27 10:41:50;;;;;;;;;;;;;;;27.31;55.36;99591.78;12207663;19;19930;-83
2022/08/27 10:46:15;;;;;;;;;;;;;;;27.76;54.29;99598.06;12228551;19;19930;-84
2022/08/27 10:50:19;;;;;;;;;;;;;;;28.12;52.07;99596.84;12203961;19;19915;-83
2022/08/27 10:54:21;;;;;;;;;;;;;;;28.04;51.04;99595.84;12229200;19;19918;-83
2022/08/27 10:58:23;;;;;;;;;;;;;;;27.77;51.12;99599.69;12229270;19;19914;-83
2022/08/27 11:02:38;;;;;;;;;;;;;;;27.58;51.49;99595.66;12209744;19;19970;-82
2022/08/27 11:06:47;;;;;;;;;;;;;;;27.66;52.65;99590.94;12229911;19;19911;-83
2022/08/27 11:10:56;;;;;;;;;;;;;;;27.80;52.16;99598.97;12206120;19;19967;-83
2022/08/27 11:15:14;;;;;;;;;;;;;;;27.87;51.26;99585.81;12229728;19;20355;-83
2022/08/27 11:19:22;;;;;;;;;;;;;;;28.21;50.89;99591.75;12228881;19;19914;-83
2022/08/27 11:23:31;;;;;;;;;;;;;;;28.34;49.82;99583.91;12209748;19;19911;-83
2022/08/27 11:27:34;;;;;;;;;;;;;;;28.50;49.68;99587.50;12227112;19;20006;-84
2022/08/27 11:31:39;;;;;;;;;;;;;;;28.48;49.91;99591.91;12228759;19;19996;-83
2022/08/27 11:35:41;;;;;;;;;;;;;;;28.53;49.42;99585.94;12206754;19;20675;-83
2022/08/27 11:39:52;;;;;;;;;;;;;;;28.67;48.57;99593.88;12228145;19;19934;-83
2022/08/27 11:43:54;;;;;;;;;;;;;;;28.47;47.69;99590.28;12222674;19;19923;-82
2022/08/27 11:47:57;;;;;;;;;;;;;;;28.29;48.53;99592.69;12236097;19;19935;-83
2022/08/27 11:52:05;;;;;;;;;;;;;;;28.04;48.29;99583.72;12231083;19;19923;-82
2022/08/27 11:56:14;;;;;;;;;;;;;;;27.97;48.83;99592.06;12217018;19;19920;-81
2022/08/27 12:00:19;;;;;;;;;;;;;;;27.85;49.02;99585.34;12239643;19;19911;-84
2022/08/27 12:04:20;;;;;;;;;;;;;;;27.80;49.48;99585.66;12242928;19;19934;-81
2022/08/27 12:08:22;;;;;;;;;;;;;;;27.88;48.92;99576.13;12216759;19;19914;-82
2022/08/27 12:12:36;;;;;;;;;;;;;;;27.86;49.52;99578.50;12237755;19;19914;-82
2022/08/27 12:17:01;;;;;;;;;;;;;;;27.91;48.49;99581.03;12239514;19;19924;-83
2022/08/27 12:21:10;;;;;;;;;;;;;;;27.78;49.90;99581.50;12218394;19;19915;-83
2022/08/27 12:25:18;;;;;;;;;;;;;;;28.06;49.09;99570.81;12234415;19;20337;-84
2022/08/27 12:29:28;;;;;;;;;;;;;;;28.16;48.29;99573.03;12207569;19;19915;-82
2022/08/27 12:33:31;;;;;;;;;;;;;;;28.38;48.42;99573.47;12227331;19;19910;-82
2022/08/27 12:37:35;;;;;;;;;;;;;;;28.50;48.07;99566.84;12235137;19;19986;-81
2022/08/27 12:41:43;;;;;;;;;;;;;;;28.86;47.02;99571.13;12210398;19;19914;-80
2022/08/27 12:45:47;;;;;;;;;;;;;;;29.28;46.26;99559.69;12230713;19;19921;-80
2022/08/27 12:49:58;;;;;;;;;;;;;;;29.51;45.13;99559.63;12209117;19;19919;-82
2022/08/27 12:54:18;;;;;;;;;;;;;;;29.11;45.72;99551.69;12229596;19;20084;-80
2022/08/27 12:58:40;;;;;;;;;;;;;;;28.80;46.10;99558.47;12227418;19;20239;-81
2022/08/27 13:02:42;;;;;;;;;;;;;;;28.32;46.44;99549.47;12206851;19;20328;-80
2022/08/27 13:06:44;;;;;;;;;;;;;;;28.16;46.57;99547.53;12233515;19;19910;-80
2022/08/27 13:10:46;;;;;;;;;;;;;;;28.03;47.29;99536.78;12207661;19;19914;-81
2022/08/27 13:14:47;;;;;;;;;;;;;;;28.11;47.58;99530.88;12231404;19;19950;-82
2022/08/27 13:18:57;;;;;;;;;;;;;;;27.96;47.33;99540.25;12229229;19;19914;-81
2022/08/27 13:23:00;;;;;;;;;;;;;;;27.72;47.43;99536.53;12207880;19;19932;-81
2022/08/27 13:27:03;;;;;;;;;;;;;;;27.53;48.03;99532.84;12230062;19;19952;-81
2022/08/27 13:31:06;;;;;;;;;;;;;;;27.60;47.61;99544.31;12227286;19;19978;-81
2022/08/27 13:35:10;;;;;;;;;;;;;;;27.57;47.63;99530.91;12207965;19;19915;-81
2022/08/27 13:39:12;;;;;;;;;;;;;;;27.48;48.27;99536.78;12227693;19;20287;-81
2022/08/27 13:43:14;;;;;;;;;;;;;;;27.49;48.52;99530.78;12228696;19;19907;-81
2022/08/27 13:47:25;;;;;;;;;;;;;;;27.55;48.50;99527.66;12206853;19;20333;-80
2022/08/27 13:51:29;;;;;;;;;;;;;;;27.49;48.36;99529.97;12225395;19;20375;-81
2022/08/27 13:55:31;;;;;;;;;;;;;;;27.36;48.37;99522.78;12228111;19;20077;-81
2022/08/27 13:59:37;;;;;;;;;;;;;;;27.42;48.67;99524.94;12209087;19;19911;-81
2022/08/27 14:03:48;;;;;;;;;;;;;;;27.47;47.96;99521.00;12236587;19;19929;-81
2022/08/27 14:07:51;;;;;;;;;;;;;;;27.50;48.34;99523.91;12217669;19;19907;-81
2022/08/27 14:12:01;;;;;;;;;;;;;;;27.68;47.87;99521.47;12238071;19;19911;-81
2022/08/27 14:16:11;;;;;;;;;;;;;;;27.76;46.86;99528.09;12238026;19;19911;-81
2022/08/27 14:20:14;;;;;;;;;;;;;;;27.85;46.27;99519.41;12217344;19;19914;-81
2022/08/27 14:24:16;;;;;;;;;;;;;;;27.89;46.20;99521.13;12236260;19;19928;-81
2022/08/27 14:28:19;;;;;;;;;;;;;;;27.84;46.56;99524.28;12236148;19;19922;-81
2022/08/27 14:32:21;;;;;;;;;;;;;;;27.93;46.53;99526.84;12211897;19;19918;-81
2022/08/27 14:36:23;;;;;;;;;;;;;;;28.00;46.43;99523.34;12235368;19;19910;-81
2022/08/27 14:40:25;;;;;;;;;;;;;;;27.97;46.38;99522.09;12234525;19;19907;-81
2022/08/27 14:44:27;;;;;;;;;;;;;;;27.72;47.03;99532.84;12213912;19;19914;-81
2022/08/27 14:48:31;;;;;;;;;;;;;;;27.65;46.96;99530.69;12232966;19;19903;-81
2022/08/27 14:52:32;;;;;;;;;;;;;;;27.57;47.07;99517.56;12234795;19;19907;-81
2022/08/27 14:56:34;;;;;;;;;;;;;;;27.47;47.63;99532.31;12212336;19;19911;-81
2022/08/27 15:00:36;;;;;;;;;;;;;;;27.29;47.47;99531.94;12236389;19;20387;-81
2022/08/27 15:04:37;;;;;;;;;;;;;;;27.20;48.25;99534.94;12235887;19;20328;-81
2022/08/27 15:08:42;;;;;;;;;;;;;;;27.30;47.57;99532.75;12214379;19;19906;-81
2022/08/27 15:12:45;;;;;;;;;;;;;;;27.37;47.74;99541.41;12231509;19;19907;-82
2022/08/27 15:16:46;;;;;;;;;;;;;;;27.41;46.91;99536.63;12213114;19;20458;-85
2022/08/27 15:20:48;;;;;;;;;;;;;;;27.41;47.19;99537.44;12230941;19;20371;-81
2022/08/27 15:24:52;;;;;;;;;;;;;;;27.49;47.06;99539.25;12231760;19;20277;-81
2022/08/27 15:28:53;;;;;;;;;;;;;;;27.42;47.74;99532.59;12209332;19;20004;-81
2022/08/27 15:32:55;;;;;;;;;;;;;;;27.26;47.87;99530.66;12228537;19;19966;-81
2022/08/27 15:36:57;;;;;;;;;;;;;;;27.19;47.94;99536.16;12232675;19;19915;-81
2022/08/27 15:40:58;;;;;;;;;;;;;;;26.92;49.02;99539.88;12208005;19;20542;-81
2022/08/27 15:45:00;;;;;;;;;;;;;;;26.92;49.33;99531.41;12232136;19;19978;-81
2022/08/27 15:49:12;;;;;;;;;;;;;;;26.88;49.79;99536.16;12235323;19;19918;-82
2022/08/27 15:53:13;;;;;;;;;;;;;;;26.89;50.31;99526.47;12207064;19;19998;-81
2022/08/27 15:57:16;;;;;;;;;;;;;;;26.86;49.69;99524.38;12230531;19;20015;-81
2022/08/27 16:01:26;;;;;;;;;;;;;;;26.80;50.00;99533.16;12231299;19;19932;-81
2022/08/27 16:05:30;;;;;;;;;;;;;;;26.82;50.63;99525.13;12209717;19;19915;-81
2022/08/27 16:09:32;;;;;;;;;;;;;;;26.85;50.89;99519.94;12232477;19;20108;-80
2022/08/27 16:13:33;;;;;;;;;;;;;;;26.65;50.53;99522.66;12230674;19;19949;-81
2022/08/27 16:17:35;;;;;;;;;;;;;;;26.55;50.62;99528.88;12206856;19;19907;-80
2022/08/27 16:21:37;;;;;;;;;;;;;;;26.47;50.58;99524.19;12227549;19;19914;-81
2022/08/27 16:25:39;;;;;;;;;;;;;;;26.46;50.35;99526.19;12219833;19;19923;-80
2022/08/27 16:29:41;;;;;;;;;;;;;;;26.44;50.64;99536.22;12230783;19;19911;-81
2022/08/27 16:33:42;;;;;;;;;;;;;;;26.36;51.39;99536.03;12226159;19;19974;-82
2022/08/27 16:37:44;;;;;;;;;;;;;;;26.30;52.27;99529.00;12205523;19;19970;-80
2022/08/27 16:41:45;;;;;;;;;;;;;;;26.19;52.91;99535.56;12228788;19;19949;-80
2022/08/27 16:45:48;;;;;;;;;;;;;;;25.92;53.88;99541.69;12234062;19;19907;-81
2022/08/27 16:54:23;;;;;;;;;;;;;;;25.49;55.45;99547.19;12227551;19;19923;-81
2022/08/27 16:58:26;;;;;;;;;;;;;;;25.27;56.37;99548.53;12227808;19;19906;-81
2022/08/27 17:02:29;;;;;;;;;;;;;;;25.15;56.31;99538.09;12204021;19;19903;-80
2022/08/27 17:06:31;;;;;;;;;;;;;;;25.06;56.40;99541.00;12226031;19;20244;-81
2022/08/27 17:10:36;;;;;;;;;;;;;;;24.98;57.42;99547.59;12225688;19;20002;-80
2022/08/27 17:14:37;;;;;;;;;;;;;;;24.93;57.50;99559.13;12201086;19;19919;-82
2022/08/27 17:18:39;;;;;;;;;;;;;;;24.82;57.71;99561.56;12222465;19;20364;-82
2022/08/27 17:22:41;;;;;;;;;;;;;;;24.81;57.88;99568.41;12203221;19;19923;-81
2022/08/27 17:26:42;;;;;;;;;;;;;;;24.66;59.93;99567.09;12227209;19;19940;-82
2022/08/27 17:30:44;;;;;;;;;;;;;;;24.19;64.68;99587.13;12219044;19;19907;-80
2022/08/27 17:34:45;;;;;;;;;;;;;;;23.67;69.97;99581.91;12221784;19;19917;-80
2022/08/27 17:38:47;;;;;;;;;;;;;;;23.20;73.53;99594.16;12267296;19;19910;-80
2022/08/27 17:42:49;;;;;;;;;;;;;;;22.83;79.07;99587.38;12270529;19;19939;-79
2022/08/27 17:46:51;;;;;;;;;;;;;;;22.53;82.23;99583.69;12221635;19;19914;-79
2022/08/27 17:50:53;;;;;;;;;;;;;;;22.32;87.03;99583.56;12232556;19;20008;-79
2022/08/27 17:54:55;;;;;;;;;;;;;;;22.13;87.68;99592.34;12232891;19;19918;-79
2022/08/27 17:58:57;;;;;;;;;;;;;;;22.01;87.81;99593.03;12211006;19;19914;-79
2022/08/27 18:02:58;;;;;;;;;;;;;;;21.88;91.73;99591.19;12231578;19;20304;-79
2022/08/27 18:07:00;;;;;;;;;;;;;;;21.77;91.74;99596.34;12231881;19;19995;-78
2022/08/27 18:11:02;;;;;;;;;;;;;;;21.65;92.22;99604.53;12205017;19;19915;-78
2022/08/27 18:15:09;;;;;;;;;;;;;;;21.57;92.67;99600.59;12230540;19;19935;-79
2022/08/27 18:19:14;;;;;;;;;;;;;;;21.48;95.32;99615.78;12233879;19;19911;-79
2022/08/27 18:23:18;;;;;;;;;;;;;;;21.36;96.63;99613.59;12210055;19;19988;-79
2022/08/27 18:27:23;;;;;;;;;;;;;;;21.27;96.16;99626.75;12236797;19;19911;-79
2022/08/27 18:31:28;;;;;;;;;;;;;;;21.12;96.81;99622.41;12230506;19;19910;-79
2022/08/27 18:35:31;;;;;;;;;;;;;;;21.01;100.00;99624.66;12210881;19;20024;-80
2022/08/27 18:39:33;;;;;;;;;;;;;;;20.96;98.48;99629.59;12231837;19;19915;-79
2022/08/27 18:43:41;;;;;;;;;;;;;;;20.96;97.43;99630.41;12214310;19;20332;-79
2022/08/27 18:47:43;;;;;;;;;;;;;;;20.98;97.59;99639.31;12228131;19;19942;-80
2022/08/27 18:51:44;;;;;;;;;;;;;;;20.96;99.00;99636.00;12224704;19;19999;-79
2022/08/27 18:55:53;;;;;;;;;;;;;;;20.84;100.00;99645.03;12202608;19;19987;-80
2022/08/27 18:59:54;;;;;;;;;;;;;;;20.82;100.00;99654.88;12230747;19;20380;-80
2022/08/27 19:03:57;;;;;;;;;;;;;;;20.75;99.90;99660.97;12229875;19;19943;-80
2022/08/27 19:07:58;;;;;;;;;;;;;;;20.75;99.55;99657.34;12208211;19;19927;-82
2022/08/27 19:12:00;;;;;;;;;;;;;;;20.70;100.00;99667.53;12231295;19;19910;-80
2022/08/27 19:16:03;;;;;;;;;;;;;;;20.62;100.00;99668.31;12229100;19;19926;-81
2022/08/27 19:20:05;;;;;;;;;;;;;;;20.61;99.57;99677.00;12206766;19;19907;-82
2022/08/27 19:24:07;;;;;;;;;;;;;;;20.52;97.73;99682.56;12227857;19;19911;-82
2022/08/27 19:28:08;;;;;;;;;;;;;;;20.59;96.53;99684.91;12230898;19;20385;-84
2022/08/27 19:32:10;;;;;;;;;;;;;;;20.56;95.03;99691.97;12207218;19;19914;-81
2022/08/27 19:36:13;;;;;;;;;;;;;;;20.53;96.34;99691.81;12231161;19;20327;-82
2022/08/27 19:40:16;;;;;;;;;;;;;;;20.48;94.56;99696.34;12230114;19;19929;-81
2022/08/27 19:44:18;;;;;;;;;;;;;;;20.49;95.35;99700.81;12206642;19;20343;-82
2022/08/27 19:48:19;;;;;;;;;;;;;;;20.49;95.24;99709.19;12229120;19;20380;-82
2022/08/27 19:52:24;;;;;;;;;;;;;;;20.48;94.92;99704.72;12226896;19;19930;-83
2022/08/27 19:56:27;;;;;;;;;;;;;;;20.52;95.66;99701.28;12204999;19;19970;-82
2022/08/27 20:00:30;;;;;;;;;;;;;;;20.51;95.16;99710.84;12225642;19;19914;-82
2022/08/27 20:04:31;;;;;;;;;;;;;;;20.49;95.60;99708.34;12226773;19;19938;-81
2022/08/27 20:08:39;;;;;;;;;;;;;;;20.46;95.00;99709.84;12205154;19;20018;-81
2022/08/27 20:12:41;;;;;;;;;;;;;;;20.49;93.73;99717.59;12224735;19;19982;-81
2022/08/27 20:16:43;;;;;;;;;;;;;;;20.46;93.81;99725.78;12203401;19;19931;-80
2022/08/27 20:20:44;;;;;;;;;;;;;;;20.45;91.49;99719.34;12224827;19;19944;-81
2022/08/27 20:24:46;;;;;;;;;;;;;;;20.51;91.76;99724.84;12224006;19;19982;-80
2022/08/27 20:28:48;;;;;;;;;;;;;;;20.43;92.75;99726.41;12203673;19;19922;-80
2022/08/27 20:32:49;;;;;;;;;;;;;;;20.46;90.97;99729.44;12221839;19;20408;-80
2022/08/27 20:36:52;;;;;;;;;;;;;;;20.55;88.76;99740.69;12222886;19;19907;-80
2022/08/27 20:40:53;;;;;;;;;;;;;;;20.60;89.60;99736.97;12203844;19;20430;-80
2022/08/27 20:44:55;;;;;;;;;;;;;;;20.53;88.01;99737.41;12225870;19;19982;-80
2022/08/27 20:48:57;;;;;;;;;;;;;;;20.57;87.42;99757.19;12224943;19;19928;-80
2022/08/27 20:52:59;;;;;;;;;;;;;;;20.56;86.63;99758.34;12199135;19;20001;-81
2022/08/27 20:57:02;;;;;;;;;;;;;;;20.53;87.29;99756.19;12223637;19;19907;-79
2022/08/27 21:01:03;;;;;;;;;;;;;;;20.44;86.33;99768.09;12221605;19;19967;-80